Terminal Aerodrome Forecast
Issued by NWS Cleveland, OH

Home | Current Version | Previous Version | Graphics & Text | Print | Product List | Glossary On
Versions: 1 2 3 4 5 6 7 8 9 10 11 12 13 14 15 16 17 18 19 20 21 22 23 24 25 26
009
FTUS41 KCLE 231730
TAFCLE
TAF
KCLE 231730Z 2318/2424 29006KT P6SM SCT120
     FM232000 36008KT P6SM SCT050 BKN100
     FM232300 02012KT P6SM SCT025 OVC050
     FM240200 04010KT 6SM BR BKN010 OVC025
     FM241400 04010KT P6SM BKN020
     FM241800 03012KT P6SM SCT030=

USA.gov is the U.S. government's official web portal to all federal, state and local government web resources and services.